sensor_id;sensor_type;location;lat;lon;timestamp;pressure;altitude;pressure_sealevel;temperature;humidity
65394;BME280;52002;49.760;6.512;2023-06-22T00:02:05;100162.64;;;22.19;70.03
65394;BME280;52002;49.760;6.512;2023-06-22T00:04:31;100165.14;;;22.15;70.03
65394;BME280;52002;49.760;6.512;2023-06-22T00:06:56;100167.23;;;22.12;70.30
65394;BME280;52002;49.760;6.512;2023-06-22T00:09:21;100162.64;;;22.10;70.37
65394;BME280;52002;49.760;6.512;2023-06-22T00:11:47;100159.16;;;22.11;70.55
65394;BME280;52002;49.760;6.512;2023-06-22T00:14:12;100155.27;;;22.12;70.63
65394;BME280;52002;49.760;6.512;2023-06-22T00:16:37;100151.08;;;22.12;70.88
65394;BME280;52002;49.760;6.512;2023-06-22T00:19:03;100141.48;;;22.11;71.04
65394;BME280;52002;49.760;6.512;2023-06-22T00:21:29;100135.66;;;22.09;70.91
65394;BME280;52002;49.760;6.512;2023-06-22T00:23:55;100121.42;;;22.05;71.22
65394;BME280;52002;49.760;6.512;2023-06-22T00:26:21;100102.04;;;21.99;71.47
65394;BME280;52002;49.760;6.512;2023-06-22T00:28:47;100084.59;;;21.94;71.96
65394;BME280;52002;49.760;6.512;2023-06-22T00:31:12;100068.09;;;21.93;72.05
65394;BME280;52002;49.760;6.512;2023-06-22T00:33:38;100064.15;;;21.93;72.27
65394;BME280;52002;49.760;6.512;2023-06-22T00:36:04;100062.06;;;21.93;72.18
65394;BME280;52002;49.760;6.512;2023-06-22T00:38:30;100052.48;;;21.92;72.31
65394;BME280;52002;49.760;6.512;2023-06-22T00:40:55;100043.87;;;21.90;72.23
65394;BME280;52002;49.760;6.512;2023-06-22T00:43:21;100043.84;;;21.86;72.26
65394;BME280;52002;49.760;6.512;2023-06-22T00:45:46;100062.33;;;21.82;72.31
65394;BME280;52002;49.760;6.512;2023-06-22T00:48:13;100073.58;;;21.82;72.60
65394;BME280;52002;49.760;6.512;2023-06-22T00:50:40;100085.23;;;21.81;72.47
65394;BME280;52002;49.760;6.512;2023-06-22T00:53:07;100092.84;;;21.79;72.48
65394;BME280;52002;49.760;6.512;2023-06-22T00:55:38;100105.52;;;21.78;72.57
65394;BME280;52002;49.760;6.512;2023-06-22T00:58:06;100119.64;;;21.78;72.53
65394;BME280;52002;49.760;6.512;2023-06-22T01:00:35;100132.77;;;21.77;72.49
65394;BME280;52002;49.760;6.512;2023-06-22T01:03:01;100142.45;;;21.75;72.51
65394;BME280;52002;49.760;6.512;2023-06-22T01:05:27;100150.94;;;21.74;72.90
65394;BME280;52002;49.760;6.512;2023-06-22T01:10:51;100151.08;;;21.77;73.15
65394;BME280;52002;49.760;6.512;2023-06-22T01:16:35;100137.02;;;21.79;73.06
65394;BME280;52002;49.760;6.512;2023-06-22T01:19:15;100090.13;;;21.78;73.24
65394;BME280;52002;49.760;6.512;2023-06-22T01:21:45;100011.70;;;21.76;73.61
65394;BME280;52002;49.760;6.512;2023-06-22T01:29:17;100012.41;;;21.61;73.35
65394;BME280;52002;49.760;6.512;2023-06-22T01:31:44;100039.64;;;21.58;73.66
65394;BME280;52002;49.760;6.512;2023-06-22T01:34:11;100047.79;;;21.58;73.69
65394;BME280;52002;49.760;6.512;2023-06-22T01:36:38;100058.58;;;21.59;73.71
65394;BME280;52002;49.760;6.512;2023-06-22T01:39:05;100066.23;;;21.60;73.77
65394;BME280;52002;49.760;6.512;2023-06-22T01:41:37;100061.04;;;21.59;73.69
65394;BME280;52002;49.760;6.512;2023-06-22T01:44:06;100056.92;;;21.56;73.59
65394;BME280;52002;49.760;6.512;2023-06-22T01:46:34;100054.30;;;21.55;74.10
65394;BME280;52002;49.760;6.512;2023-06-22T01:49:04;100058.02;;;21.56;74.08
65394;BME280;52002;49.760;6.512;2023-06-22T01:51:29;100060.16;;;21.54;74.08
65394;BME280;52002;49.760;6.512;2023-06-22T01:53:55;100061.98;;;21.48;74.27
65394;BME280;52002;49.760;6.512;2023-06-22T01:56:21;100059.27;;;21.41;74.30
65394;BME280;52002;49.760;6.512;2023-06-22T01:59:47;100053.20;;;21.38;74.46
65394;BME280;52002;49.760;6.512;2023-06-22T02:01:52;100047.34;;;21.33;74.50
65394;BME280;52002;49.760;6.512;2023-06-22T02:04:22;100042.98;;;21.28;74.42
65394;BME280;52002;49.760;6.512;2023-06-22T02:06:51;100042.52;;;21.23;74.70
65394;BME280;52002;49.760;6.512;2023-06-22T02:09:20;100041.85;;;21.21;74.95
65394;BME280;52002;49.760;6.512;2023-06-22T02:11:48;100043.19;;;21.23;75.06
65394;BME280;52002;49.760;6.512;2023-06-22T02:14:17;100038.02;;;21.26;75.00
65394;BME280;52002;49.760;6.512;2023-06-22T02:16:43;100032.84;;;21.22;74.84
65394;BME280;52002;49.760;6.512;2023-06-22T02:19:09;100024.23;;;21.20;74.83
65394;BME280;52002;49.760;6.512;2023-06-22T02:21:34;100018.91;;;21.21;75.01
65394;BME280;52002;49.760;6.512;2023-06-22T02:23:59;100015.37;;;21.18;74.91
65394;BME280;52002;49.760;6.512;2023-06-22T02:26:25;100011.40;;;21.16;75.05
65394;BME280;52002;49.760;6.512;2023-06-22T02:28:51;100013.02;;;21.14;75.14
65394;BME280;52002;49.760;6.512;2023-06-22T02:31:18;100010.77;;;21.09;75.18
65394;BME280;52002;49.760;6.512;2023-06-22T02:33:43;100004.27;;;21.04;75.19
65394;BME280;52002;49.760;6.512;2023-06-22T02:36:09;99996.71;;;21.04;75.26
65394;BME280;52002;49.760;6.512;2023-06-22T02:38:38;99988.36;;;21.03;75.40
65394;BME280;52002;49.760;6.512;2023-06-22T02:41:04;99980.55;;;21.02;75.42
65394;BME280;52002;49.760;6.512;2023-06-22T02:43:29;99979.77;;;20.99;75.53
65394;BME280;52002;49.760;6.512;2023-06-22T02:45:55;99977.09;;;20.97;75.54
65394;BME280;52002;49.760;6.512;2023-06-22T02:48:20;99976.21;;;20.95;75.67
65394;BME280;52002;49.760;6.512;2023-06-22T02:50:46;99971.36;;;20.93;75.71
65394;BME280;52002;49.760;6.512;2023-06-22T02:53:11;99970.11;;;20.93;75.62
65394;BME280;52002;49.760;6.512;2023-06-22T02:55:37;99968.83;;;20.96;75.69
65394;BME280;52002;49.760;6.512;2023-06-22T02:58:04;99975.27;;;20.98;75.73
65394;BME280;52002;49.760;6.512;2023-06-22T03:00:31;99980.94;;;20.98;75.81
65394;BME280;52002;49.760;6.512;2023-06-22T03:02:57;99976.48;;;20.99;75.80
65394;BME280;52002;49.760;6.512;2023-06-22T03:05:23;99974.80;;;21.00;75.78
65394;BME280;52002;49.760;6.512;2023-06-22T03:07:49;99972.37;;;21.02;75.57
65394;BME280;52002;49.760;6.512;2023-06-22T03:10:15;99971.57;;;21.02;75.50
65394;BME280;52002;49.760;6.512;2023-06-22T03:12:41;99970.20;;;21.01;75.56
65394;BME280;52002;49.760;6.512;2023-06-22T03:15:09;99968.61;;;21.02;75.82
65394;BME280;52002;49.760;6.512;2023-06-22T03:17:35;99962.77;;;21.05;75.79
65394;BME280;52002;49.760;6.512;2023-06-22T03:20:02;99965.24;;;21.05;75.75
65394;BME280;52002;49.760;6.512;2023-06-22T03:22:36;99958.73;;;21.04;75.48
65394;BME280;52002;49.760;6.512;2023-06-22T03:25:02;99954.96;;;21.04;75.48
65394;BME280;52002;49.760;6.512;2023-06-22T03:27:27;99952.42;;;21.05;75.47
65394;BME280;52002;49.760;6.512;2023-06-22T03:29:52;99951.71;;;21.07;75.49
65394;BME280;52002;49.760;6.512;2023-06-22T03:32:18;99955.48;;;21.10;75.41
65394;BME280;52002;49.760;6.512;2023-06-22T03:34:43;99949.93;;;21.07;75.39
65394;BME280;52002;49.760;6.512;2023-06-22T03:37:12;99942.37;;;21.07;75.76
65394;BME280;52002;49.760;6.512;2023-06-22T03:39:38;99945.09;;;21.09;75.68
65394;BME280;52002;49.760;6.512;2023-06-22T03:42:03;99950.45;;;21.07;75.55
65394;BME280;52002;49.760;6.512;2023-06-22T03:44:29;99949.08;;;21.08;75.51
65394;BME280;52002;49.760;6.512;2023-06-22T03:46:54;99950.01;;;21.08;75.59
65394;BME280;52002;49.760;6.512;2023-06-22T03:49:20;99952.56;;;21.11;75.51
65394;BME280;52002;49.760;6.512;2023-06-22T03:51:45;99947.49;;;21.11;75.54
65394;BME280;52002;49.760;6.512;2023-06-22T03:54:10;99954.80;;;21.11;75.41
65394;BME280;52002;49.760;6.512;2023-06-22T03:56:36;99950.33;;;21.06;75.49
65394;BME280;52002;49.760;6.512;2023-06-22T03:59:02;99941.27;;;21.07;75.71
65394;BME280;52002;49.760;6.512;2023-06-22T04:01:27;99936.73;;;21.11;75.73
65394;BME280;52002;49.760;6.512;2023-06-22T04:03:52;99935.55;;;21.11;75.60
65394;BME280;52002;49.760;6.512;2023-06-22T04:06:18;99937.31;;;21.10;75.68
65394;BME280;52002;49.760;6.512;2023-06-22T04:08:45;99936.02;;;21.12;75.62
65394;BME280;52002;49.760;6.512;2023-06-22T04:11:13;99940.69;;;21.09;75.40
65394;BME280;52002;49.760;6.512;2023-06-22T04:13:38;99936.69;;;21.08;75.41
65394;BME280;52002;49.760;6.512;2023-06-22T04:16:04;99940.02;;;21.12;75.18
65394;BME280;52002;49.760;6.512;2023-06-22T04:18:29;99940.33;;;21.13;75.13
65394;BME280;52002;49.760;6.512;2023-06-22T04:20:54;99944.26;;;21.16;74.84
65394;BME280;52002;49.760;6.512;2023-06-22T04:23:20;99945.83;;;21.21;74.93
65394;BME280;52002;49.760;6.512;2023-06-22T04:25:45;99942.91;;;21.28;75.00
65394;BME280;52002;49.760;6.512;2023-06-22T04:28:10;99939.39;;;21.37;75.17
65394;BME280;52002;49.760;6.512;2023-06-22T04:30:38;99935.96;;;21.47;74.66
65394;BME280;52002;49.760;6.512;2023-06-22T04:33:13;99934.39;;;21.60;74.44
65394;BME280;52002;49.760;6.512;2023-06-22T04:35:38;99934.16;;;21.78;74.06
65394;BME280;52002;49.760;6.512;2023-06-22T04:38:07;99939.52;;;21.95;73.70
65394;BME280;52002;49.760;6.512;2023-06-22T04:40:32;99938.23;;;22.12;73.09
65394;BME280;52002;49.760;6.512;2023-06-22T04:42:58;99930.41;;;22.24;72.67
65394;BME280;52002;49.760;6.512;2023-06-22T04:45:28;99932.08;;;22.36;72.50
65394;BME280;52002;49.760;6.512;2023-06-22T04:47:54;99931.45;;;22.43;71.95
65394;BME280;52002;49.760;6.512;2023-06-22T04:50:20;99927.67;;;22.48;71.64
65394;BME280;52002;49.760;6.512;2023-06-22T04:52:47;99927.42;;;22.59;71.54
65394;BME280;52002;49.760;6.512;2023-06-22T04:55:14;99926.59;;;22.70;70.99
65394;BME280;52002;49.760;6.512;2023-06-22T04:57:44;99923.94;;;22.76;70.54
65394;BME280;52002;49.760;6.512;2023-06-22T05:00:18;99921.36;;;22.81;70.45
65394;BME280;52002;49.760;6.512;2023-06-22T05:02:45;99919.56;;;22.93;70.33
65394;BME280;52002;49.760;6.512;2023-06-22T05:05:12;99924.25;;;23.05;70.10
65394;BME280;52002;49.760;6.512;2023-06-22T05:07:42;99919.84;;;23.18;69.71
65394;BME280;52002;49.760;6.512;2023-06-22T05:10:10;99922.09;;;23.25;69.15
65394;BME280;52002;49.760;6.512;2023-06-22T05:12:36;99923.38;;;23.33;69.01
65394;BME280;52002;49.760;6.512;2023-06-22T05:15:03;99928.60;;;23.44;68.56
65394;BME280;52002;49.760;6.512;2023-06-22T05:17:28;99929.67;;;23.63;68.22
65394;BME280;52002;49.760;6.512;2023-06-22T05:19:54;99930.08;;;23.85;67.82
65394;BME280;52002;49.760;6.512;2023-06-22T05:22:20;99928.19;;;24.27;66.49
65394;BME280;52002;49.760;6.512;2023-06-22T05:24:46;99929.92;;;24.97;65.38
65394;BME280;52002;49.760;6.512;2023-06-22T05:27:12;99934.71;;;26.06;63.88
65394;BME280;52002;49.760;6.512;2023-06-22T05:29:37;99935.95;;;27.41;61.63
65394;BME280;52002;49.760;6.512;2023-06-22T05:32:03;99938.59;;;27.96;60.14
65394;BME280;52002;49.760;6.512;2023-06-22T05:34:29;99942.56;;;28.48;58.54
65394;BME280;52002;49.760;6.512;2023-06-22T05:36:54;99944.13;;;29.14;56.89
65394;BME280;52002;49.760;6.512;2023-06-22T05:39:19;99943.26;;;29.78;55.08
65394;BME280;52002;49.760;6.512;2023-06-22T05:41:45;99949.48;;;31.22;52.45
65394;BME280;52002;49.760;6.512;2023-06-22T05:44:11;99943.92;;;32.40;50.40
65394;BME280;52002;49.760;6.512;2023-06-22T05:46:40;99949.52;;;33.05;48.56
65394;BME280;52002;49.760;6.512;2023-06-22T05:49:09;99945.77;;;33.97;47.00
65394;BME280;52002;49.760;6.512;2023-06-22T05:51:35;99947.59;;;34.90;45.30
65394;BME280;52002;49.760;6.512;2023-06-22T05:54:00;99954.85;;;34.67;44.71
65394;BME280;52002;49.760;6.512;2023-06-22T05:56:25;99958.67;;;33.65;44.92
65394;BME280;52002;49.760;6.512;2023-06-22T05:58:51;99961.14;;;32.95;45.44
65394;BME280;52002;49.760;6.512;2023-06-22T06:01:16;99951.16;;;32.33;45.59
65394;BME280;52002;49.760;6.512;2023-06-22T06:03:42;99949.70;;;31.68;45.76
65394;BME280;52002;49.760;6.512;2023-06-22T06:06:07;99945.33;;;31.92;45.50
65394;BME280;52002;49.760;6.512;2023-06-22T06:08:33;99946.66;;;33.51;43.83
65394;BME280;52002;49.760;6.512;2023-06-22T06:10:58;99945.79;;;34.95;42.59
65394;BME280;52002;49.760;6.512;2023-06-22T06:13:24;99949.86;;;34.71;42.35
65394;BME280;52002;49.760;6.512;2023-06-22T06:15:49;99946.58;;;33.99;42.58
65394;BME280;52002;49.760;6.512;2023-06-22T06:18:16;99945.31;;;33.78;42.73
65394;BME280;52002;49.760;6.512;2023-06-22T06:20:42;99950.17;;;33.90;42.44
65394;BME280;52002;49.760;6.512;2023-06-22T06:23:08;99948.55;;;34.52;41.56
65394;BME280;52002;49.760;6.512;2023-06-22T06:25:33;99947.51;;;35.82;39.81
65394;BME280;52002;49.760;6.512;2023-06-22T06:27:58;99946.89;;;37.24;38.35
65394;BME280;52002;49.760;6.512;2023-06-22T06:30:24;99943.20;;;37.90;37.08
65394;BME280;52002;49.760;6.512;2023-06-22T06:32:50;99936.73;;;38.76;35.47
65394;BME280;52002;49.760;6.512;2023-06-22T06:35:15;99936.68;;;40.34;33.73
65394;BME280;52002;49.760;6.512;2023-06-22T06:37:47;99934.64;;;41.94;32.29
65394;BME280;52002;49.760;6.512;2023-06-22T06:40:14;99931.48;;;43.40;30.60
65394;BME280;52002;49.760;6.512;2023-06-22T06:42:44;99923.80;;;43.93;29.67
65394;BME280;52002;49.760;6.512;2023-06-22T06:45:21;99924.14;;;45.13;28.54
65394;BME280;52002;49.760;6.512;2023-06-22T06:47:51;99917.31;;;46.23;27.07
65394;BME280;52002;49.760;6.512;2023-06-22T06:50:17;99913.14;;;47.05;26.11
65394;BME280;52002;49.760;6.512;2023-06-22T06:52:43;99906.40;;;47.23;25.30
65394;BME280;52002;49.760;6.512;2023-06-22T06:55:09;99905.61;;;47.37;24.81
65394;BME280;52002;49.760;6.512;2023-06-22T06:57:38;99907.20;;;47.43;24.12
65394;BME280;52002;49.760;6.512;2023-06-22T07:00:05;99900.66;;;47.26;24.16
65394;BME280;52002;49.760;6.512;2023-06-22T07:02:35;99893.07;;;45.92;24.63
65394;BME280;52002;49.760;6.512;2023-06-22T07:05:01;99890.07;;;44.20;25.77
65394;BME280;52002;49.760;6.512;2023-06-22T07:07:28;99879.66;;;43.07;26.33
65394;BME280;52002;49.760;6.512;2023-06-22T07:09:54;99879.05;;;43.40;26.07
65394;BME280;52002;49.760;6.512;2023-06-22T07:12:19;99878.62;;;44.77;25.26
65394;BME280;52002;49.760;6.512;2023-06-22T07:14:44;99871.05;;;45.67;24.17
65394;BME280;52002;49.760;6.512;2023-06-22T07:17:10;99866.81;;;45.26;24.32
65394;BME280;52002;49.760;6.512;2023-06-22T07:19:35;99855.94;;;44.42;24.68
65394;BME280;52002;49.760;6.512;2023-06-22T07:22:01;99855.86;;;44.01;24.75
65394;BME280;52002;49.760;6.512;2023-06-22T07:24:26;99842.98;;;43.75;24.92
65394;BME280;52002;49.760;6.512;2023-06-22T07:26:52;99840.08;;;44.03;24.87
65394;BME280;52002;49.760;6.512;2023-06-22T07:29:17;99839.72;;;44.39;24.39
65394;BME280;52002;49.760;6.512;2023-06-22T07:31:44;99828.61;;;45.38;23.91
65394;BME280;52002;49.760;6.512;2023-06-22T07:34:10;99820.29;;;46.85;23.07
65394;BME280;52002;49.760;6.512;2023-06-22T07:36:35;99815.53;;;47.64;22.22
65394;BME280;52002;49.760;6.512;2023-06-22T07:39:02;99810.77;;;48.62;21.16
65394;BME280;52002;49.760;6.512;2023-06-22T07:41:28;99794.45;;;49.29;21.02
65394;BME280;52002;49.760;6.512;2023-06-22T07:43:54;99792.61;;;49.86;20.22
65394;BME280;52002;49.760;6.512;2023-06-22T07:46:19;99800.31;;;50.07;19.90
65394;BME280;52002;49.760;6.512;2023-06-22T07:48:44;99808.44;;;50.06;19.57
65394;BME280;52002;49.760;6.512;2023-06-22T07:51:10;99811.45;;;48.71;19.95
65394;BME280;52002;49.760;6.512;2023-06-22T07:53:42;99795.08;;;46.38;21.38
65394;BME280;52002;49.760;6.512;2023-06-22T07:56:10;99763.19;;;46.08;21.96
65394;BME280;52002;49.760;6.512;2023-06-22T07:58:36;99755.76;;;46.34;21.56
65394;BME280;52002;49.760;6.512;2023-06-22T08:01:01;99747.66;;;45.20;22.54
65394;BME280;52002;49.760;6.512;2023-06-22T08:03:27;99735.10;;;42.96;24.20
65394;BME280;52002;49.760;6.512;2023-06-22T08:05:52;99723.66;;;40.96;26.20
65394;BME280;52002;49.760;6.512;2023-06-22T08:08:18;99712.38;;;39.21;28.05
65394;BME280;52002;49.760;6.512;2023-06-22T08:10:43;99693.49;;;37.89;29.56
65394;BME280;52002;49.760;6.512;2023-06-22T08:13:09;99682.66;;;37.09;30.89
65394;BME280;52002;49.760;6.512;2023-06-22T08:15:35;99673.46;;;36.47;31.88
65394;BME280;52002;49.760;6.512;2023-06-22T08:18:00;99664.80;;;36.16;32.68
65394;BME280;52002;49.760;6.512;2023-06-22T08:20:26;99652.08;;;35.48;33.87
65394;BME280;52002;49.760;6.512;2023-06-22T08:22:53;99632.30;;;34.73;34.76
65394;BME280;52002;49.760;6.512;2023-06-22T08:25:19;99631.90;;;33.97;35.89
65394;BME280;52002;49.760;6.512;2023-06-22T08:27:46;99640.78;;;33.18;37.17
65394;BME280;52002;49.760;6.512;2023-06-22T08:30:13;99661.12;;;32.35;38.37
65394;BME280;52002;49.760;6.512;2023-06-22T08:32:38;99694.55;;;31.55;39.69
65394;BME280;52002;49.760;6.512;2023-06-22T08:35:04;99710.55;;;30.90;41.11
65394;BME280;52002;49.760;6.512;2023-06-22T08:37:32;99717.71;;;30.33;42.68
65394;BME280;52002;49.760;6.512;2023-06-22T08:40:01;99706.42;;;29.82;43.65
65394;BME280;52002;49.760;6.512;2023-06-22T08:42:27;99675.73;;;29.30;44.46
65394;BME280;52002;49.760;6.512;2023-06-22T08:44:52;99655.58;;;28.83;45.67
65394;BME280;52002;49.760;6.512;2023-06-22T08:47:19;99651.41;;;28.50;46.72
65394;BME280;52002;49.760;6.512;2023-06-22T08:49:45;99648.73;;;28.28;47.73
65394;BME280;52002;49.760;6.512;2023-06-22T08:52:11;99638.23;;;28.12;47.96
65394;BME280;52002;49.760;6.512;2023-06-22T08:54:36;99634.91;;;28.03;48.35
65394;BME280;52002;49.760;6.512;2023-06-22T08:57:02;99662.83;;;27.90;48.75
65394;BME280;52002;49.760;6.512;2023-06-22T08:59:27;99719.17;;;27.71;49.30
65394;BME280;52002;49.760;6.512;2023-06-22T09:01:53;99809.46;;;27.47;49.72
65394;BME280;52002;49.760;6.512;2023-06-22T09:04:19;99904.09;;;27.26;50.69
65394;BME280;52002;49.760;6.512;2023-06-22T09:06:47;99947.69;;;27.00;51.57
65394;BME280;52002;49.760;6.512;2023-06-22T09:09:16;99944.91;;;26.67;53.82
65394;BME280;52002;49.760;6.512;2023-06-22T09:11:42;99901.45;;;26.37;55.68
65394;BME280;52002;49.760;6.512;2023-06-22T09:14:08;99858.38;;;26.13;56.77
65394;BME280;52002;49.760;6.512;2023-06-22T09:16:34;99834.42;;;26.00;57.79
65394;BME280;52002;49.760;6.512;2023-06-22T09:18:59;99837.24;;;25.85;58.67
65394;BME280;52002;49.760;6.512;2023-06-22T09:21:25;99839.03;;;25.65;59.89
65394;BME280;52002;49.760;6.512;2023-06-22T09:23:50;99817.81;;;25.30;61.00
65394;BME280;52002;49.760;6.512;2023-06-22T09:26:20;99798.74;;;25.04;62.40
65394;BME280;52002;49.760;6.512;2023-06-22T09:28:45;99781.16;;;24.87;64.86
65394;BME280;52002;49.760;6.512;2023-06-22T09:31:11;99774.42;;;24.68;64.98
65394;BME280;52002;49.760;6.512;2023-06-22T09:33:37;99801.98;;;24.59;65.47
65394;BME280;52002;49.760;6.512;2023-06-22T09:36:08;99825.79;;;24.60;65.72
65394;BME280;52002;49.760;6.512;2023-06-22T09:38:37;99817.59;;;24.66;65.44
65394;BME280;52002;49.760;6.512;2023-06-22T09:41:03;99801.48;;;24.79;64.91
65394;BME280;52002;49.760;6.512;2023-06-22T09:43:31;99795.13;;;25.01;64.61
65394;BME280;52002;49.760;6.512;2023-06-22T09:45:56;99786.66;;;25.35;64.38
65394;BME280;52002;49.760;6.512;2023-06-22T09:48:21;99788.14;;;25.52;64.01
65394;BME280;52002;49.760;6.512;2023-06-22T09:50:47;99804.92;;;25.55;63.92
65394;BME280;52002;49.760;6.512;2023-06-22T09:53:12;99833.14;;;25.53;64.20
65394;BME280;52002;49.760;6.512;2023-06-22T09:55:37;99833.48;;;25.48;64.31
65394;BME280;52002;49.760;6.512;2023-06-22T09:58:03;99809.53;;;25.45;63.95
65394;BME280;52002;49.760;6.512;2023-06-22T10:00:28;99790.05;;;25.33;64.42
65394;BME280;52002;49.760;6.512;2023-06-22T10:02:53;99777.24;;;25.24;64.72
65394;BME280;52002;49.760;6.512;2023-06-22T10:05:21;99759.27;;;25.36;64.98
65394;BME280;52002;49.760;6.512;2023-06-22T10:07:47;99747.54;;;25.86;64.64
65394;BME280;52002;49.760;6.512;2023-06-22T10:10:12;99742.56;;;26.48;64.25
65394;BME280;52002;49.760;6.512;2023-06-22T10:12:55;99737.47;;;27.01;63.33
65394;BME280;52002;49.760;6.512;2023-06-22T10:15:20;99732.88;;;27.34;62.19
65394;BME280;52002;49.760;6.512;2023-06-22T10:17:46;99733.17;;;27.40;61.22
65394;BME280;52002;49.760;6.512;2023-06-22T10:20:12;99732.85;;;27.28;60.54
65394;BME280;52002;49.760;6.512;2023-06-22T10:22:43;99728.71;;;27.34;60.44
65394;BME280;52002;49.760;6.512;2023-06-22T10:25:10;99723.42;;;27.49;60.00
65394;BME280;52002;49.760;6.512;2023-06-22T10:27:35;99723.25;;;27.56;60.02
65394;BME280;52002;49.760;6.512;2023-06-22T10:30:01;99722.25;;;27.56;59.57
65394;BME280;52002;49.760;6.512;2023-06-22T10:32:27;99723.77;;;27.70;59.70
65394;BME280;52002;49.760;6.512;2023-06-22T10:34:54;99718.50;;;27.96;59.14
65394;BME280;52002;49.760;6.512;2023-06-22T10:37:19;99715.98;;;28.12;58.92
65394;BME280;52002;49.760;6.512;2023-06-22T10:39:44;99710.28;;;28.18;58.62
65394;BME280;52002;49.760;6.512;2023-06-22T10:42:11;99703.77;;;28.26;58.66
65394;BME280;52002;49.760;6.512;2023-06-22T10:44:36;99700.93;;;28.22;58.73
65394;BME280;52002;49.760;6.512;2023-06-22T10:47:02;99692.31;;;28.15;58.79
65394;BME280;52002;49.760;6.512;2023-06-22T10:49:27;99683.56;;;28.12;59.14
65394;BME280;52002;49.760;6.512;2023-06-22T10:51:52;99680.33;;;28.12;59.06
65394;BME280;52002;49.760;6.512;2023-06-22T10:54:18;99678.09;;;28.09;59.18
65394;BME280;52002;49.760;6.512;2023-06-22T10:56:44;99666.90;;;28.14;59.00
65394;BME280;52002;49.760;6.512;2023-06-22T10:59:09;99661.76;;;28.16;58.46
65394;BME280;52002;49.760;6.512;2023-06-22T11:01:35;99663.64;;;28.19;58.61
65394;BME280;52002;49.760;6.512;2023-06-22T11:04:02;99660.27;;;28.28;58.00
65394;BME280;52002;49.760;6.512;2023-06-22T11:06:28;99661.32;;;28.46;57.82
65394;BME280;52002;49.760;6.512;2023-06-22T11:08:53;99660.27;;;28.72;57.77
65394;BME280;52002;49.760;6.512;2023-06-22T11:11:19;99662.16;;;28.95;57.13
65394;BME280;52002;49.760;6.512;2023-06-22T11:13:44;99663.86;;;29.19;56.86
65394;BME280;52002;49.760;6.512;2023-06-22T11:16:10;99658.06;;;29.37;56.44
65394;BME280;52002;49.760;6.512;2023-06-22T11:18:35;99650.70;;;29.58;56.22
65394;BME280;52002;49.760;6.512;2023-06-22T11:21:00;99643.35;;;29.78;55.35
65394;BME280;52002;49.760;6.512;2023-06-22T11:23:26;99642.37;;;29.89;55.48
65394;BME280;52002;49.760;6.512;2023-06-22T11:25:53;99638.16;;;29.97;54.78
65394;BME280;52002;49.760;6.512;2023-06-22T11:28:18;99632.80;;;29.90;54.46
65394;BME280;52002;49.760;6.512;2023-06-22T11:30:43;99625.38;;;29.81;54.93
65394;BME280;52002;49.760;6.512;2023-06-22T11:33:09;99623.88;;;29.74;54.38
65394;BME280;52002;49.760;6.512;2023-06-22T11:35:34;99616.79;;;29.70;54.41
65394;BME280;52002;49.760;6.512;2023-06-22T11:37:59;99610.55;;;29.60;54.95
65394;BME280;52002;49.760;6.512;2023-06-22T11:40:25;99602.02;;;29.49;55.10
65394;BME280;52002;49.760;6.512;2023-06-22T11:42:50;99598.54;;;29.41;55.40
65394;BME280;52002;49.760;6.512;2023-06-22T11:45:15;99593.23;;;29.33;55.57
65394;BME280;52002;49.760;6.512;2023-06-22T11:47:42;99591.08;;;29.16;55.36
65394;BME280;52002;49.760;6.512;2023-06-22T11:50:08;99587.44;;;29.09;55.58
65394;BME280;52002;49.760;6.512;2023-06-22T11:52:34;99580.53;;;29.18;55.34
65394;BME280;52002;49.760;6.512;2023-06-22T11:55:01;99571.86;;;29.24;55.63
65394;BME280;52002;49.760;6.512;2023-06-22T11:57:29;99569.28;;;29.27;55.17
65394;BME280;52002;49.760;6.512;2023-06-22T11:59:54;99563.20;;;29.29;55.32
65394;BME280;52002;49.760;6.512;2023-06-22T12:02:19;99558.25;;;29.31;55.27
65394;BME280;52002;49.760;6.512;2023-06-22T12:04:45;99554.50;;;29.25;54.47
65394;BME280;52002;49.760;6.512;2023-06-22T12:07:10;99550.96;;;29.14;54.41
65394;BME280;52002;49.760;6.512;2023-06-22T12:09:36;99549.69;;;29.09;54.49
65394;BME280;52002;49.760;6.512;2023-06-22T12:12:01;99547.31;;;29.09;54.54
65394;BME280;52002;49.760;6.512;2023-06-22T12:14:26;99544.94;;;29.07;54.38
65394;BME280;52002;49.760;6.512;2023-06-22T12:16:52;99539.60;;;29.04;54.50
65394;BME280;52002;49.760;6.512;2023-06-22T12:19:17;99543.13;;;29.06;54.61
65394;BME280;52002;49.760;6.512;2023-06-22T12:21:42;99541.17;;;29.11;54.56
65394;BME280;52002;49.760;6.512;2023-06-22T12:24:10;99537.07;;;29.22;54.82
65394;BME280;52002;49.760;6.512;2023-06-22T12:26:36;99530.20;;;29.48;54.66
65394;BME280;52002;49.760;6.512;2023-06-22T12:29:01;99526.00;;;29.71;53.97
65394;BME280;52002;49.760;6.512;2023-06-22T12:31:26;99525.62;;;29.79;53.80
65394;BME280;52002;49.760;6.512;2023-06-22T12:33:52;99522.44;;;29.79;53.67
65394;BME280;52002;49.760;6.512;2023-06-22T12:36:17;99524.25;;;29.71;53.59
65394;BME280;52002;49.760;6.512;2023-06-22T12:38:42;99521.61;;;29.58;53.95
65394;BME280;52002;49.760;6.512;2023-06-22T12:41:08;99514.30;;;29.47;53.70
65394;BME280;52002;49.760;6.512;2023-06-22T12:43:33;99507.25;;;29.35;54.08
65394;BME280;52002;49.760;6.512;2023-06-22T12:45:58;99507.94;;;29.19;54.36
65394;BME280;52002;49.760;6.512;2023-06-22T12:48:28;99495.03;;;29.00;54.89
65394;BME280;52002;49.760;6.512;2023-06-22T12:50:53;99480.73;;;28.76;55.32
65394;BME280;52002;49.760;6.512;2023-06-22T12:53:19;99472.80;;;28.54;55.89
65394;BME280;52002;49.760;6.512;2023-06-22T12:55:44;99465.21;;;28.34;56.53
65394;BME280;52002;49.760;6.512;2023-06-22T12:58:10;99469.83;;;28.13;57.58
65394;BME280;52002;49.760;6.512;2023-06-22T13:00:35;99460.34;;;27.98;58.16
65394;BME280;52002;49.760;6.512;2023-06-22T13:03:00;99451.61;;;27.98;58.46
65394;BME280;52002;49.760;6.512;2023-06-22T13:05:26;99458.69;;;28.08;59.29